Medlin's Ranch, Nevada Weather observations

Data are for observation ending at time listed.
 Day   Time    Ave.   Ave.  Ave.  Vector   Max.   Stn.    Total    Solar   Ave.  
  of    of     Air    Rel.  Wind   Wind    Wind   Baro.  Precip.   Rad.    Soil  
Year   Day     Temp.  Hum.  Speed  Dir.    Gust   Pres.                    Temp. 
2016   (PST)    F      %     mph   deg.    mph     mb.     in.     W/m2     F   
------------------------------------------------------------------------------
 151   16:00   83.0    12    3.2    39     14.8    861     0.00     218    86.0
 151   17:00   83.9    12    2.8     5      9.3    861     0.00     229    85.2
 151   18:00   85.4    10    6.8   327     16.9    861     0.00     247    84.1
 151   19:00   82.2    10    6.4   348     12.9    861     0.00      70    83.2
 151   20:00   75.0    13    4.4   317      8.8    861     0.00       0    82.2
 151   21:00   70.4    15    5.0   294      7.7    862     0.00       0    81.0
 151   22:00   69.0    17    3.2   298      8.5    862     0.00       0    79.6
 151   23:00   70.3    18    5.4   299     12.0    862     0.00       0    78.3
 152    0:00   70.9    18    9.9   299     21.0    862     0.00       0    77.1
 152    1:00   70.4    19    9.8   308     18.6    862     0.00       0    76.2
 152    2:00   69.1    21    7.3   322     14.4    863     0.00       0    75.5
 152    3:00   68.1    22    7.7   330     16.1    863     0.00       0    74.8
 152    4:00   64.4    25    5.9   320     11.8    863     0.00       0    74.2
 152    5:00   62.8    26    4.8   295      9.0    863     0.00      16    73.5
 152    6:00   67.8    24    5.3   323      9.9    864     0.00     145    72.8
 152    7:00   72.4    21    5.5   339      9.5    864     0.00     352    72.3
 152    8:00   75.3    21    4.1    54     10.2    864     0.00     576    72.7
 152    9:00   77.7    19    4.0    71     11.2    864     0.00     760    74.2
 152   10:00   79.8    16    5.6    10     14.2    864     0.00     845    76.9
 152   11:00   81.5    14    6.0    32     14.6    863     0.00     964    80.0
 152   12:00   83.2    12    5.7    60     18.3    863     0.00    1049    83.1
 152   13:00   85.2    11    5.3   359     14.5    862     0.00    1015    85.9
 152   14:00   86.3    10    5.6   330     22.3    862     0.00     932    87.9
 152   15:00   87.8    10    4.5   331     12.6    861     0.00     874    88.5

Return to Medlin's Ranch, Nevada graphs page.


Western Regional Climate Center,wrcc@dri.edu